sensor_id;sensor_type;location;lat;lon;timestamp;temperature;humidity
15298;DHT22;7750;48.796;9.026;2022-10-16T00:00:44;19.50;82.50
15298;DHT22;7750;48.796;9.026;2022-10-16T00:05:44;19.50;82.40
15298;DHT22;7750;48.796;9.026;2022-10-16T00:10:45;19.50;82.50
15298;DHT22;7750;48.796;9.026;2022-10-16T00:15:45;19.50;83.20
15298;DHT22;7750;48.796;9.026;2022-10-16T00:20:46;19.50;82.40
15298;DHT22;7750;48.796;9.026;2022-10-16T00:25:58;19.50;82.30
15298;DHT22;7750;48.796;9.026;2022-10-16T00:30:59;19.50;82.40
15298;DHT22;7750;48.796;9.026;2022-10-16T00:36:04;19.50;82.30
15298;DHT22;7750;48.796;9.026;2022-10-16T00:41:11;19.50;82.30
15298;DHT22;7750;48.796;9.026;2022-10-16T00:46:38;19.50;82.30
15298;DHT22;7750;48.796;9.026;2022-10-16T00:51:45;19.50;82.30
15298;DHT22;7750;48.796;9.026;2022-10-16T00:56:47;19.50;82.30
15298;DHT22;7750;48.796;9.026;2022-10-16T01:01:48;19.50;82.30
15298;DHT22;7750;48.796;9.026;2022-10-16T01:12:46;19.50;82.30
15298;DHT22;7750;48.796;9.026;2022-10-16T01:17:49;19.50;82.40
15298;DHT22;7750;48.796;9.026;2022-10-16T01:28:11;19.40;82.30
15298;DHT22;7750;48.796;9.026;2022-10-16T01:33:35;19.50;82.30
15298;DHT22;7750;48.796;9.026;2022-10-16T01:38:36;19.40;82.20
15298;DHT22;7750;48.796;9.026;2022-10-16T01:44:01;19.50;82.80
15298;DHT22;7750;48.796;9.026;2022-10-16T01:49:03;19.50;82.10
15298;DHT22;7750;48.796;9.026;2022-10-16T01:54:07;19.50;82.10
15298;DHT22;7750;48.796;9.026;2022-10-16T01:59:14;19.50;82.10
15298;DHT22;7750;48.796;9.026;2022-10-16T02:04:36;19.50;82.00
15298;DHT22;7750;48.796;9.026;2022-10-16T02:09:37;19.50;82.00
15298;DHT22;7750;48.796;9.026;2022-10-16T02:14:39;19.50;82.70
15298;DHT22;7750;48.796;9.026;2022-10-16T02:19:40;19.50;82.20
15298;DHT22;7750;48.796;9.026;2022-10-16T02:24:52;19.50;82.10
15298;DHT22;7750;48.796;9.026;2022-10-16T02:30:20;19.50;82.00
15298;DHT22;7750;48.796;9.026;2022-10-16T02:35:21;19.50;82.00
15298;DHT22;7750;48.796;9.026;2022-10-16T02:40:22;19.60;82.00
15298;DHT22;7750;48.796;9.026;2022-10-16T02:45:24;19.50;82.00
15298;DHT22;7750;48.796;9.026;2022-10-16T02:50:24;19.50;81.90
15298;DHT22;7750;48.796;9.026;2022-10-16T02:55:25;19.50;81.80
15298;DHT22;7750;48.796;9.026;2022-10-16T03:00:26;19.50;81.80
15298;DHT22;7750;48.796;9.026;2022-10-16T03:05:27;19.50;81.70
15298;DHT22;7750;48.796;9.026;2022-10-16T03:10:27;19.50;81.50
15298;DHT22;7750;48.796;9.026;2022-10-16T03:15:28;19.50;81.70
15298;DHT22;7750;48.796;9.026;2022-10-16T03:20:29;19.50;81.60
15298;DHT22;7750;48.796;9.026;2022-10-16T03:25:29;19.50;81.70
15298;DHT22;7750;48.796;9.026;2022-10-16T03:30:30;19.50;81.50
15298;DHT22;7750;48.796;9.026;2022-10-16T03:35:32;19.50;81.70
15298;DHT22;7750;48.796;9.026;2022-10-16T03:40:33;19.50;81.60
15298;DHT22;7750;48.796;9.026;2022-10-16T03:45:33;19.50;81.70
15298;DHT22;7750;48.796;9.026;2022-10-16T03:50:34;19.50;81.70
15298;DHT22;7750;48.796;9.026;2022-10-16T03:55:35;19.50;81.70
15298;DHT22;7750;48.796;9.026;2022-10-16T04:00:36;19.40;81.60
15298;DHT22;7750;48.796;9.026;2022-10-16T04:05:39;19.40;81.70
15298;DHT22;7750;48.796;9.026;2022-10-16T04:10:42;19.40;81.70
15298;DHT22;7750;48.796;9.026;2022-10-16T04:15:44;19.40;81.60
15298;DHT22;7750;48.796;9.026;2022-10-16T04:20:45;19.40;81.80
15298;DHT22;7750;48.796;9.026;2022-10-16T04:25:45;19.30;81.70
15298;DHT22;7750;48.796;9.026;2022-10-16T04:30:46;19.30;81.80
15298;DHT22;7750;48.796;9.026;2022-10-16T04:35:47;19.30;81.90
15298;DHT22;7750;48.796;9.026;2022-10-16T04:40:47;19.30;82.70
15298;DHT22;7750;48.796;9.026;2022-10-16T04:45:48;19.30;82.00
15298;DHT22;7750;48.796;9.026;2022-10-16T04:50:51;19.20;82.10
15298;DHT22;7750;48.796;9.026;2022-10-16T04:55:51;19.20;82.10
15298;DHT22;7750;48.796;9.026;2022-10-16T05:00:52;19.20;82.10
15298;DHT22;7750;48.796;9.026;2022-10-16T05:05:53;19.20;82.20
15298;DHT22;7750;48.796;9.026;2022-10-16T05:10:53;19.20;82.30
15298;DHT22;7750;48.796;9.026;2022-10-16T05:15:54;19.10;82.40
15298;DHT22;7750;48.796;9.026;2022-10-16T05:20:55;19.10;83.00
15298;DHT22;7750;48.796;9.026;2022-10-16T05:25:57;19.10;82.30
15298;DHT22;7750;48.796;9.026;2022-10-16T05:30:58;19.10;82.50
15298;DHT22;7750;48.796;9.026;2022-10-16T05:36:08;19.10;82.50
15298;DHT22;7750;48.796;9.026;2022-10-16T05:41:09;19.10;82.60
15298;DHT22;7750;48.796;9.026;2022-10-16T05:46:10;19.00;82.30
15298;DHT22;7750;48.796;9.026;2022-10-16T05:51:12;19.00;83.00
15298;DHT22;7750;48.796;9.026;2022-10-16T05:56:12;19.00;82.50
15298;DHT22;7750;48.796;9.026;2022-10-16T06:01:18;19.00;82.80
15298;DHT22;7750;48.796;9.026;2022-10-16T06:06:21;18.90;83.00
15298;DHT22;7750;48.796;9.026;2022-10-16T06:11:28;18.90;83.10
15298;DHT22;7750;48.796;9.026;2022-10-16T06:16:29;19.00;83.20
15298;DHT22;7750;48.796;9.026;2022-10-16T06:21:30;18.90;83.20
15298;DHT22;7750;48.796;9.026;2022-10-16T06:26:31;19.00;83.20
15298;DHT22;7750;48.796;9.026;2022-10-16T06:31:32;19.00;83.50
15298;DHT22;7750;48.796;9.026;2022-10-16T06:36:33;19.00;83.50
15298;DHT22;7750;48.796;9.026;2022-10-16T06:41:34;19.00;83.40
15298;DHT22;7750;48.796;9.026;2022-10-16T06:46:35;19.00;83.60
15298;DHT22;7750;48.796;9.026;2022-10-16T06:51:35;19.00;83.60
15298;DHT22;7750;48.796;9.026;2022-10-16T06:56:41;19.00;83.70
15298;DHT22;7750;48.796;9.026;2022-10-16T07:01:41;19.10;84.60
15298;DHT22;7750;48.796;9.026;2022-10-16T07:06:42;19.10;84.20
15298;DHT22;7750;48.796;9.026;2022-10-16T07:11:43;19.30;84.60
15298;DHT22;7750;48.796;9.026;2022-10-16T07:16:44;19.30;84.40
15298;DHT22;7750;48.796;9.026;2022-10-16T07:21:45;19.30;84.30
15298;DHT22;7750;48.796;9.026;2022-10-16T07:26:46;19.30;83.40
15298;DHT22;7750;48.796;9.026;2022-10-16T07:31:47;19.40;83.60
15298;DHT22;7750;48.796;9.026;2022-10-16T07:36:51;19.40;83.60
15298;DHT22;7750;48.796;9.026;2022-10-16T07:41:52;19.50;83.20
15298;DHT22;7750;48.796;9.026;2022-10-16T07:46:53;19.50;83.20
15298;DHT22;7750;48.796;9.026;2022-10-16T07:51:53;19.50;83.60
15298;DHT22;7750;48.796;9.026;2022-10-16T07:56:54;19.60;83.30
15298;DHT22;7750;48.796;9.026;2022-10-16T08:01:55;19.70;83.50
15298;DHT22;7750;48.796;9.026;2022-10-16T08:06:55;19.80;83.50
15298;DHT22;7750;48.796;9.026;2022-10-16T08:11:56;19.80;83.40
15298;DHT22;7750;48.796;9.026;2022-10-16T08:16:56;20.00;83.10
15298;DHT22;7750;48.796;9.026;2022-10-16T08:21:57;20.10;82.90
15298;DHT22;7750;48.796;9.026;2022-10-16T08:26:58;20.20;83.60
15298;DHT22;7750;48.796;9.026;2022-10-16T08:31:58;20.40;82.80
15298;DHT22;7750;48.796;9.026;2022-10-16T08:36:59;20.50;82.10
15298;DHT22;7750;48.796;9.026;2022-10-16T08:42:20;20.60;81.70
15298;DHT22;7750;48.796;9.026;2022-10-16T08:47:57;20.60;81.40
15298;DHT22;7750;48.796;9.026;2022-10-16T08:53:04;20.70;81.20
15298;DHT22;7750;48.796;9.026;2022-10-16T08:58:17;20.80;80.20
15298;DHT22;7750;48.796;9.026;2022-10-16T09:03:42;20.80;80.60
15298;DHT22;7750;48.796;9.026;2022-10-16T09:15:05;20.90;80.70
15298;DHT22;7750;48.796;9.026;2022-10-16T09:20:28;21.10;81.10
15298;DHT22;7750;48.796;9.026;2022-10-16T09:25:30;21.20;79.80
15298;DHT22;7750;48.796;9.026;2022-10-16T09:30:31;21.40;80.00
15298;DHT22;7750;48.796;9.026;2022-10-16T09:35:38;21.50;78.10
15298;DHT22;7750;48.796;9.026;2022-10-16T09:40:42;21.60;77.40
15298;DHT22;7750;48.796;9.026;2022-10-16T09:45:43;21.70;77.40
15298;DHT22;7750;48.796;9.026;2022-10-16T09:50:58;21.70;77.30
15298;DHT22;7750;48.796;9.026;2022-10-16T09:56:02;21.80;77.70
15298;DHT22;7750;48.796;9.026;2022-10-16T10:01:11;22.00;76.90
15298;DHT22;7750;48.796;9.026;2022-10-16T10:06:25;22.10;76.30
15298;DHT22;7750;48.796;9.026;2022-10-16T10:11:44;22.30;76.40
15298;DHT22;7750;48.796;9.026;2022-10-16T10:16:46;22.40;74.80
15298;DHT22;7750;48.796;9.026;2022-10-16T10:21:48;22.40;75.80
15298;DHT22;7750;48.796;9.026;2022-10-16T10:27:08;22.60;75.60
15298;DHT22;7750;48.796;9.026;2022-10-16T10:32:39;22.80;74.40
15298;DHT22;7750;48.796;9.026;2022-10-16T10:49:06;23.20;75.10
15298;DHT22;7750;48.796;9.026;2022-10-16T10:54:17;23.50;75.30
15298;DHT22;7750;48.796;9.026;2022-10-16T11:10:45;24.60;72.70
15298;DHT22;7750;48.796;9.026;2022-10-16T11:15:48;24.80;71.20
15298;DHT22;7750;48.796;9.026;2022-10-16T11:21:02;25.00;71.30
15298;DHT22;7750;48.796;9.026;2022-10-16T11:26:09;25.30;70.50
15298;DHT22;7750;48.796;9.026;2022-10-16T11:36:29;25.60;69.10
15298;DHT22;7750;48.796;9.026;2022-10-16T11:41:43;25.70;67.70
15298;DHT22;7750;48.796;9.026;2022-10-16T11:46:58;25.80;67.30
15298;DHT22;7750;48.796;9.026;2022-10-16T11:52:25;25.90;65.90
15298;DHT22;7750;48.796;9.026;2022-10-16T11:57:35;26.10;66.90
15298;DHT22;7750;48.796;9.026;2022-10-16T12:03:22;26.30;67.00
15298;DHT22;7750;48.796;9.026;2022-10-16T12:08:27;26.60;66.70
15298;DHT22;7750;48.796;9.026;2022-10-16T12:13:32;26.70;65.00
15298;DHT22;7750;48.796;9.026;2022-10-16T12:18:33;26.90;65.00
15298;DHT22;7750;48.796;9.026;2022-10-16T12:23:46;26.90;64.90
15298;DHT22;7750;48.796;9.026;2022-10-16T12:28:50;27.00;64.80
15298;DHT22;7750;48.796;9.026;2022-10-16T12:34:02;27.10;64.00
15298;DHT22;7750;48.796;9.026;2022-10-16T12:39:03;27.20;63.40
15298;DHT22;7750;48.796;9.026;2022-10-16T12:44:24;27.30;63.40
15298;DHT22;7750;48.796;9.026;2022-10-16T12:49:34;27.50;62.70
15298;DHT22;7750;48.796;9.026;2022-10-16T12:54:37;27.60;61.00
15298;DHT22;7750;48.796;9.026;2022-10-16T13:00:13;27.60;60.90
15298;DHT22;7750;48.796;9.026;2022-10-16T13:31:38;27.80;57.60
15298;DHT22;7750;48.796;9.026;2022-10-16T13:36:50;27.70;58.20
15298;DHT22;7750;48.796;9.026;2022-10-16T13:42:07;27.60;58.10
15298;DHT22;7750;48.796;9.026;2022-10-16T13:47:24;27.60;58.00
15298;DHT22;7750;48.796;9.026;2022-10-16T13:52:25;27.60;57.60
15298;DHT22;7750;48.796;9.026;2022-10-16T13:57:26;27.60;59.40
15298;DHT22;7750;48.796;9.026;2022-10-16T14:02:34;27.70;59.30
15298;DHT22;7750;48.796;9.026;2022-10-16T14:07:36;27.80;59.10
15298;DHT22;7750;48.796;9.026;2022-10-16T14:12:37;27.80;59.90
15298;DHT22;7750;48.796;9.026;2022-10-16T14:17:44;27.90;60.90
15298;DHT22;7750;48.796;9.026;2022-10-16T14:22:45;27.90;60.00
15298;DHT22;7750;48.796;9.026;2022-10-16T14:28:21;27.90;60.00
15298;DHT22;7750;48.796;9.026;2022-10-16T14:38:30;27.80;60.20
15298;DHT22;7750;48.796;9.026;2022-10-16T14:43:37;27.70;60.10
15298;DHT22;7750;48.796;9.026;2022-10-16T14:48:41;27.80;60.20
15298;DHT22;7750;48.796;9.026;2022-10-16T14:53:42;27.80;60.50
15298;DHT22;7750;48.796;9.026;2022-10-16T14:58:43;27.80;60.50
15298;DHT22;7750;48.796;9.026;2022-10-16T15:03:45;27.80;60.80
15298;DHT22;7750;48.796;9.026;2022-10-16T15:08:45;27.90;60.40
15298;DHT22;7750;48.796;9.026;2022-10-16T15:13:46;27.90;60.80
15298;DHT22;7750;48.796;9.026;2022-10-16T15:18:47;28.00;60.70
15298;DHT22;7750;48.796;9.026;2022-10-16T15:23:49;28.10;59.90
15298;DHT22;7750;48.796;9.026;2022-10-16T15:28:50;28.20;60.60
15298;DHT22;7750;48.796;9.026;2022-10-16T15:33:52;28.40;59.90
15298;DHT22;7750;48.796;9.026;2022-10-16T15:38:56;28.50;59.80
15298;DHT22;7750;48.796;9.026;2022-10-16T15:43:57;28.50;59.50
15298;DHT22;7750;48.796;9.026;2022-10-16T15:48:58;28.50;59.40
15298;DHT22;7750;48.796;9.026;2022-10-16T15:53:59;28.40;59.70
15298;DHT22;7750;48.796;9.026;2022-10-16T15:59:02;28.40;60.20
15298;DHT22;7750;48.796;9.026;2022-10-16T16:04:03;28.40;60.20
15298;DHT22;7750;48.796;9.026;2022-10-16T16:09:05;28.30;59.80
15298;DHT22;7750;48.796;9.026;2022-10-16T16:14:06;28.30;59.40
15298;DHT22;7750;48.796;9.026;2022-10-16T16:19:07;28.20;59.50
15298;DHT22;7750;48.796;9.026;2022-10-16T16:24:09;28.10;59.30
15298;DHT22;7750;48.796;9.026;2022-10-16T16:29:13;27.90;58.90
15298;DHT22;7750;48.796;9.026;2022-10-16T16:34:14;27.60;58.80
15298;DHT22;7750;48.796;9.026;2022-10-16T16:39:27;27.30;58.80
15298;DHT22;7750;48.796;9.026;2022-10-16T16:44:36;26.90;58.60
15298;DHT22;7750;48.796;9.026;2022-10-16T16:49:37;26.60;59.00
15298;DHT22;7750;48.796;9.026;2022-10-16T16:54:40;26.20;59.00
15298;DHT22;7750;48.796;9.026;2022-10-16T16:59:44;25.90;59.80
15298;DHT22;7750;48.796;9.026;2022-10-16T17:04:47;25.60;59.70
15298;DHT22;7750;48.796;9.026;2022-10-16T17:09:48;25.30;59.90
15298;DHT22;7750;48.796;9.026;2022-10-16T17:14:50;25.50;59.70
15298;DHT22;7750;48.796;9.026;2022-10-16T17:19:51;25.10;60.00
15298;DHT22;7750;48.796;9.026;2022-10-16T17:24:52;24.80;60.50
15298;DHT22;7750;48.796;9.026;2022-10-16T17:29:54;24.50;60.70
15298;DHT22;7750;48.796;9.026;2022-10-16T17:34:54;24.30;61.10
15298;DHT22;7750;48.796;9.026;2022-10-16T17:39:55;24.10;61.60
15298;DHT22;7750;48.796;9.026;2022-10-16T17:44:55;24.00;62.00
15298;DHT22;7750;48.796;9.026;2022-10-16T17:49:56;23.80;62.20
15298;DHT22;7750;48.796;9.026;2022-10-16T17:54:58;23.60;63.20
15298;DHT22;7750;48.796;9.026;2022-10-16T17:59:58;23.50;62.70
15298;DHT22;7750;48.796;9.026;2022-10-16T18:05:02;23.30;63.00
15298;DHT22;7750;48.796;9.026;2022-10-16T18:10:05;23.30;63.50
15298;DHT22;7750;48.796;9.026;2022-10-16T18:15:08;23.20;63.70
15298;DHT22;7750;48.796;9.026;2022-10-16T18:20:10;23.10;64.40
15298;DHT22;7750;48.796;9.026;2022-10-16T18:25:11;23.00;64.50
15298;DHT22;7750;48.796;9.026;2022-10-16T18:30:12;22.80;64.80
15298;DHT22;7750;48.796;9.026;2022-10-16T18:35:13;22.70;65.10
15298;DHT22;7750;48.796;9.026;2022-10-16T18:40:13;22.60;65.50
15298;DHT22;7750;48.796;9.026;2022-10-16T18:45:14;22.40;66.00
15298;DHT22;7750;48.796;9.026;2022-10-16T18:50:15;22.30;66.00
15298;DHT22;7750;48.796;9.026;2022-10-16T18:55:15;22.20;66.30
15298;DHT22;7750;48.796;9.026;2022-10-16T19:00:16;22.10;66.60
15298;DHT22;7750;48.796;9.026;2022-10-16T19:05:17;22.00;66.90
15298;DHT22;7750;48.796;9.026;2022-10-16T19:10:18;21.80;66.90
15298;DHT22;7750;48.796;9.026;2022-10-16T19:15:20;21.70;67.20
15298;DHT22;7750;48.796;9.026;2022-10-16T19:20:22;21.60;67.60
15298;DHT22;7750;48.796;9.026;2022-10-16T19:25:22;21.50;67.60
15298;DHT22;7750;48.796;9.026;2022-10-16T19:30:23;21.40;67.90
15298;DHT22;7750;48.796;9.026;2022-10-16T19:35:24;21.20;67.90
15298;DHT22;7750;48.796;9.026;2022-10-16T19:40:26;21.20;68.20
15298;DHT22;7750;48.796;9.026;2022-10-16T19:45:27;21.10;68.80
15298;DHT22;7750;48.796;9.026;2022-10-16T19:50:27;21.10;69.00
15298;DHT22;7750;48.796;9.026;2022-10-16T19:55:30;21.10;69.20
15298;DHT22;7750;48.796;9.026;2022-10-16T20:00:31;21.10;69.30
15298;DHT22;7750;48.796;9.026;2022-10-16T20:05:31;21.10;69.80
15298;DHT22;7750;48.796;9.026;2022-10-16T20:10:32;21.10;70.10
15298;DHT22;7750;48.796;9.026;2022-10-16T20:15:36;21.00;69.40
15298;DHT22;7750;48.796;9.026;2022-10-16T20:20:41;21.00;69.90
15298;DHT22;7750;48.796;9.026;2022-10-16T20:25:43;20.90;69.90
15298;DHT22;7750;48.796;9.026;2022-10-16T20:30:45;20.90;69.80
15298;DHT22;7750;48.796;9.026;2022-10-16T20:35:48;20.90;70.00
15298;DHT22;7750;48.796;9.026;2022-10-16T20:40:48;20.80;70.10
15298;DHT22;7750;48.796;9.026;2022-10-16T20:45:58;20.80;70.10
15298;DHT22;7750;48.796;9.026;2022-10-16T20:50:59;20.80;70.50
15298;DHT22;7750;48.796;9.026;2022-10-16T20:56:09;20.60;70.30
15298;DHT22;7750;48.796;9.026;2022-10-16T21:01:12;20.60;70.30
15298;DHT22;7750;48.796;9.026;2022-10-16T21:06:14;20.50;70.50
15298;DHT22;7750;48.796;9.026;2022-10-16T21:11:19;20.50;70.70
15298;DHT22;7750;48.796;9.026;2022-10-16T21:16:21;20.40;70.80
15298;DHT22;7750;48.796;9.026;2022-10-16T21:21:25;20.50;71.00
15298;DHT22;7750;48.796;9.026;2022-10-16T21:26:27;20.40;71.10
15298;DHT22;7750;48.796;9.026;2022-10-16T21:31:28;20.50;70.90
15298;DHT22;7750;48.796;9.026;2022-10-16T21:36:31;20.40;70.80
15298;DHT22;7750;48.796;9.026;2022-10-16T21:41:34;20.50;70.80
15298;DHT22;7750;48.796;9.026;2022-10-16T21:46:37;20.40;70.70
15298;DHT22;7750;48.796;9.026;2022-10-16T21:51:44;20.40;71.50
15298;DHT22;7750;48.796;9.026;2022-10-16T21:56:45;20.40;70.70
15298;DHT22;7750;48.796;9.026;2022-10-16T22:01:46;20.40;70.80
15298;DHT22;7750;48.796;9.026;2022-10-16T22:06:47;20.50;70.90
15298;DHT22;7750;48.796;9.026;2022-10-16T22:11:47;20.40;70.70
15298;DHT22;7750;48.796;9.026;2022-10-16T22:16:49;20.30;70.70
15298;DHT22;7750;48.796;9.026;2022-10-16T22:21:53;20.20;70.80
15298;DHT22;7750;48.796;9.026;2022-10-16T22:26:56;20.20;71.10
15298;DHT22;7750;48.796;9.026;2022-10-16T22:31:57;20.10;71.10
15298;DHT22;7750;48.796;9.026;2022-10-16T22:36:57;20.00;71.20
15298;DHT22;7750;48.796;9.026;2022-10-16T22:41:58;20.00;71.30
15298;DHT22;7750;48.796;9.026;2022-10-16T22:46:58;19.90;71.50
15298;DHT22;7750;48.796;9.026;2022-10-16T22:51:59;19.80;72.20
15298;DHT22;7750;48.796;9.026;2022-10-16T22:57:00;19.80;71.70
15298;DHT22;7750;48.796;9.026;2022-10-16T23:02:00;19.70;71.70
15298;DHT22;7750;48.796;9.026;2022-10-16T23:07:01;19.70;71.90
15298;DHT22;7750;48.796;9.026;2022-10-16T23:12:02;19.60;71.90
15298;DHT22;7750;48.796;9.026;2022-10-16T23:17:02;19.60;72.00
15298;DHT22;7750;48.796;9.026;2022-10-16T23:22:03;19.50;72.00
15298;DHT22;7750;48.796;9.026;2022-10-16T23:27:04;19.40;72.10
15298;DHT22;7750;48.796;9.026;2022-10-16T23:32:05;19.40;72.30
15298;DHT22;7750;48.796;9.026;2022-10-16T23:37:05;19.40;72.40
15298;DHT22;7750;48.796;9.026;2022-10-16T23:42:06;19.30;72.40
15298;DHT22;7750;48.796;9.026;2022-10-16T23:47:07;19.20;72.50
15298;DHT22;7750;48.796;9.026;2022-10-16T23:52:07;19.20;72.50
15298;DHT22;7750;48.796;9.026;2022-10-16T23:57:08;19.10;72.60
